SUSO

Details ICAO SUSO (STY)
Name NUEVA HESPERIDES INTL
Region Uruguay
Timezone America/Montevideo (UTC-3.0)
Plans Departing 9
Arriving 6
Stats Elevation 187 ft / 57 m (AMSL)
Location -31.435375° -57.985449°
Runways 2
Magnetic Variation 11.081° W
Sunrise 2017-12-15 08:43:09 UTC / 2017-12-15 05:43:09 Local
Sunset 2017-12-15 22:53:59 UTC / 2017-12-15 19:53:59 Local
Advertisement - Login to hide

Runways

ID Width Length Bearing (true) Bearing (mag) Surface Threshold Offset Overrun Length
05 148 ft / 45 m 5,215 ft / 1,589 m 38.75° 49.83° Asphalt 0 ft / 0 m 0 ft / 0 m
13 164 ft / 50 m 2,457 ft / 749 m 116.35° 127.43° Grass 0 ft / 0 m 0 ft / 0 m
23 148 ft / 45 m 5,215 ft / 1,589 m 218.75° 229.83° Asphalt 0 ft / 0 m 0 ft / 0 m
31 164 ft / 50 m 2,457 ft / 749 m 296.35° 307.43° Grass 0 ft / 0 m 0 ft / 0 m

Map

Weather


0- 5 10 15 20 25 30 35+ Temperature / ° C

Clouds and Precipitation
Forecast for 2017-12-15 12:00 UTC. Updated an hour ago

Ground ~20,000 ft ~40,000 ft Winds

METAR

SUSO 151200Z 00000KT CAVOK 27/16 Q1013

TAF

SUSO 151130Z 1512/1612 VRB03KT CAVOK TX37/1518Z TN23/1609Z BECMG 1515/1517 04015KT 9999 SCT040

Frequencies

Tower 118.80 MHz SALTO TWR
Tower 122.10 MHz SALTO TWR
Warning: Do not use this data for real-world aviation or navigation. No guarantee of current accuracy is given.